Time;durP1;ratioP1;P1;durP2;ratioP2;P2;SDS_P1;SDS_P2;PMS_P1;PMS_P2;Temp;Humidity;BMP_temperature;BMP_pressure;BME280_temperature;BME280_humidity;BME280_pressure;Samples;Min_cycle;Max_cycle;Signal;HPM_P1;HPM_P2
2023/01/03 00:00:01;;;;;;;3.95;1.50;;;19.80;63.20;;;;;;5053564;28;20053;-59
2023/01/03 00:02:26;;;;;;;4.32;1.70;;;19.80;63.20;;;;;;5048522;28;20049;-59
2023/01/03 00:04:52;;;;;;;4.90;1.77;;;19.80;63.10;;;;;;5053896;28;20041;-59
2023/01/03 00:07:32;;;;;;;4.43;1.60;;;19.70;63.10;;;;;;5051541;28;20068;-59
2023/01/03 00:09:59;;;;;;;4.70;1.67;;;19.70;63.00;;;;;;5054267;28;20063;-59
2023/01/03 00:12:25;;;;;;;3.42;1.65;;;19.70;63.00;;;;;;5052677;28;20053;-59
2023/01/03 00:14:51;;;;;;;3.70;1.60;;;19.70;63.00;;;;;;5053764;28;20394;-59
2023/01/03 00:17:18;;;;;;;3.70;1.60;;;19.70;63.00;;;;;;5071243;28;20055;-59
2023/01/03 00:19:44;;;;;;;2.58;1.52;;;19.70;63.00;;;;;;5073118;28;20421;-59
2023/01/03 00:22:11;;;;;;;3.45;1.83;;;19.70;63.00;;;;;;5073786;28;20547;-59
2023/01/03 00:24:36;;;;;;;3.97;1.83;;;19.70;62.90;;;;;;5072504;28;20094;-59
2023/01/03 00:27:02;;;;;;;3.70;1.50;;;19.70;62.90;;;;;;5072803;28;20040;-59
2023/01/03 00:29:28;;;;;;;4.05;1.67;;;19.70;62.90;;;;;;5073399;28;20037;-59
2023/01/03 00:31:53;;;;;;;3.75;1.33;;;19.60;62.80;;;;;;5073463;28;20499;-59
2023/01/03 00:34:19;;;;;;;4.13;1.85;;;19.60;62.80;;;;;;5072519;28;20504;-58
2023/01/03 00:36:44;;;;;;;5.57;1.55;;;19.60;62.80;;;;;;5073233;28;20055;-59
2023/01/03 00:39:13;;;;;;;3.45;1.75;;;19.60;62.80;;;;;;5073412;28;20072;-59
2023/01/03 00:41:38;;;;;;;;;;;19.60;62.80;;;;;;5073185;28;20078;-59
2023/01/03 00:44:04;;;;;;;3.65;1.63;;;19.60;62.70;;;;;;5072806;28;19963;-59
2023/01/03 00:46:29;;;;;;;3.53;1.80;;;19.60;62.80;;;;;;5072491;28;20552;-59
2023/01/03 00:48:55;;;;;;;3.25;1.60;;;19.50;62.70;;;;;;5072729;28;20453;-59
2023/01/03 00:51:28;;;;;;;2.40;1.48;;;19.50;62.70;;;;;;5072693;28;20048;-59
2023/01/03 00:53:55;;;;;;;3.10;1.52;;;19.50;62.70;;;;;;5071265;28;20044;-59
2023/01/03 00:56:23;;;;;;;3.92;1.77;;;19.50;62.70;;;;;;5072185;28;20051;-59
2023/01/03 00:58:49;;;;;;;2.75;1.45;;;19.50;62.70;;;;;;5073359;28;20041;-59
2023/01/03 01:01:26;;;;;;;3.58;1.40;;;19.50;62.70;;;;;;5072629;28;20051;-60
2023/01/03 01:03:54;;;;;;;4.10;1.45;;;19.50;62.60;;;;;;5072674;28;20391;-60
2023/01/03 01:06:22;;;;;;;2.50;1.55;;;19.50;62.70;;;;;;5072772;28;20040;-60
2023/01/03 01:08:48;;;;;;;4.22;1.60;;;19.50;62.60;;;;;;5072167;28;20045;-60
2023/01/03 01:11:14;;;;;;;3.38;1.30;;;19.50;62.60;;;;;;5072217;28;20048;-60
2023/01/03 01:13:40;;;;;;;3.17;1.50;;;19.50;62.60;;;;;;5072713;28;20112;-60
2023/01/03 01:16:08;;;;;;;3.17;1.42;;;19.40;62.50;;;;;;5066526;28;20052;-60
2023/01/03 01:18:34;;;;;;;3.63;1.70;;;19.40;62.50;;;;;;5072914;28;20070;-59
2023/01/03 01:21:02;;;;;;;4.28;1.63;;;19.40;62.50;;;;;;5071130;28;20036;-59
2023/01/03 01:23:27;;;;;;;;;;;19.40;62.50;;;;;;5070833;28;20483;-60
2023/01/03 01:25:53;;;;;;;3.30;1.75;;;19.40;62.40;;;;;;5072463;28;19927;-60
2023/01/03 01:28:18;;;;;;;3.40;1.55;;;19.40;62.60;;;;;;5071930;28;20040;-59
2023/01/03 01:30:44;;;;;;;4.43;1.50;;;19.40;62.50;;;;;;5071692;28;20131;-60
2023/01/03 01:33:09;;;;;;;4.57;1.73;;;19.40;62.50;;;;;;5072303;28;20045;-59
2023/01/03 01:35:35;;;;;;;2.97;1.60;;;19.40;62.50;;;;;;5072741;28;20053;-59
2023/01/03 01:38:01;;;;;;;3.58;1.60;;;19.40;62.50;;;;;;5071801;28;20484;-59
2023/01/03 01:40:26;;;;;;;2.55;1.20;;;19.30;62.40;;;;;;5071906;28;20072;-59
2023/01/03 01:45:37;;;;;;;4.43;1.98;;;19.30;62.40;;;;;;5071679;28;20044;-60
2023/01/03 01:48:06;;;;;;;2.15;1.17;;;19.40;62.40;;;;;;5071145;28;20045;-60
2023/01/03 01:50:43;;;;;;;3.30;1.60;;;19.30;62.40;;;;;;5070925;28;20396;-60
2023/01/03 01:53:20;;;;;;;3.17;1.50;;;19.30;62.40;;;;;;5070764;28;20041;-60
2023/01/03 01:56:13;;;;;;;3.63;1.60;;;19.30;62.40;;;;;;5070845;28;20107;-59
2023/01/03 01:58:41;;;;;;;3.13;1.27;;;19.30;62.40;;;;;;5071190;28;20177;-60
2023/01/03 02:01:09;;;;;;;4.03;1.38;;;19.30;62.40;;;;;;5072074;28;20484;-60
2023/01/03 02:03:35;;;;;;;2.80;1.60;;;19.30;62.40;;;;;;5054210;28;20094;-59
2023/01/03 02:06:01;;;;;;;3.30;1.40;;;19.30;62.40;;;;;;5053078;28;20040;-60
2023/01/03 02:08:26;;;;;;;3.95;1.60;;;19.30;62.40;;;;;;5071738;28;20105;-60
2023/01/03 02:11:29;;;;;;;4.93;1.73;;;19.30;62.40;;;;;;5072198;28;20058;-60
2023/01/03 02:14:14;;;;;;;3.42;1.48;;;19.30;62.30;;;;;;5069704;28;20072;-60
2023/01/03 02:17:13;;;;;;;3.35;1.50;;;19.30;62.40;;;;;;5072154;28;20131;-60
2023/01/03 02:19:50;;;;;;;3.55;1.50;;;19.30;62.40;;;;;;5069914;28;20404;-59
2023/01/03 02:22:25;;;;;;;3.50;1.55;;;19.20;62.30;;;;;;5070641;28;20043;-59
2023/01/03 02:25:28;;;;;;;3.88;1.58;;;19.20;62.30;;;;;;5071945;28;20059;-59
2023/01/03 02:28:25;;;;;;;4.25;1.40;;;19.20;62.20;;;;;;5071378;28;20040;-59
2023/01/03 02:31:10;;;;;;;2.60;1.23;;;19.20;62.20;;;;;;5054312;28;20070;-59
2023/01/03 02:33:54;;;;;;;4.15;1.63;;;19.20;62.30;;;;;;5069811;28;20107;-59
2023/01/03 02:36:34;;;;;;;4.18;1.67;;;19.20;62.30;;;;;;5070457;28;20117;-59
2023/01/03 02:39:08;;;;;;;2.65;1.23;;;19.20;62.90;;;;;;5065580;28;20039;-60
2023/01/03 02:41:41;;;;;;;3.25;1.30;;;19.20;62.30;;;;;;5069843;28;20047;-59
2023/01/03 02:44:12;;;;;;;2.58;1.40;;;19.20;62.30;;;;;;5053627;28;20037;-59
2023/01/03 02:46:55;;;;;;;2.80;1.38;;;19.10;62.20;;;;;;5053618;28;20102;-59
2023/01/03 02:49:25;;;;;;;2.90;1.52;;;19.10;62.20;;;;;;5070279;28;20052;-59
2023/01/03 02:51:57;;;;;;;2.88;1.33;;;19.10;62.30;;;;;;5070322;28;20033;-59
2023/01/03 02:54:26;;;;;;;3.20;1.33;;;19.20;62.30;;;;;;5069695;28;20060;-59
2023/01/03 02:57:03;;;;;;;3.75;1.25;;;19.10;62.30;;;;;;5070571;28;20048;-59
2023/01/03 02:59:44;;;;;;;3.38;1.25;;;19.10;62.20;;;;;;5070140;28;20048;-59
2023/01/03 03:02:10;;;;;;;3.88;1.33;;;19.10;62.20;;;;;;5069511;28;20048;-59
2023/01/03 03:04:35;;;;;;;3.45;1.15;;;19.10;62.20;;;;;;5070173;28;20441;-59
2023/01/03 03:07:28;;;;;;;1.73;1.20;;;19.10;62.20;;;;;;5071310;28;20046;-59
2023/01/03 03:15:37;;;;;;;3.00;1.35;;;19.10;62.20;;;;;;5069503;28;20052;-59
2023/01/03 03:18:10;;;;;;;2.70;1.27;;;19.10;62.20;;;;;;5074031;28;20492;-59
2023/01/03 03:26:12;;;;;;;3.67;1.50;;;19.00;62.20;;;;;;5019497;28;20138;-59
2023/01/03 03:28:38;;;;;;;2.42;1.25;;;19.00;62.20;;;;;;5049764;28;20095;-59
2023/01/03 03:31:13;;;;;;;1.67;1.17;;;19.00;62.20;;;;;;5049552;28;20041;-59
2023/01/03 03:33:49;;;;;;;3.28;1.40;;;19.00;62.20;;;;;;5049523;28;20056;-60
2023/01/03 03:36:17;;;;;;;2.75;1.17;;;19.00;62.20;;;;;;5033777;28;20059;-59
2023/01/03 03:38:43;;;;;;;3.03;1.20;;;19.10;62.20;;;;;;5050170;28;20056;-59
2023/01/03 03:47:34;;;;;;;2.38;1.08;;;19.00;62.10;;;;;;5074317;28;20488;-60
2023/01/03 03:50:03;;;;;;;2.45;1.20;;;19.00;62.10;;;;;;5073447;28;20093;-60
2023/01/03 03:52:29;;;;;;;3.65;1.20;;;19.00;62.10;;;;;;5072441;28;20136;-59
2023/01/03 03:55:02;;;;;;;4.50;1.45;;;19.00;62.00;;;;;;5073235;28;20119;-59
2023/01/03 03:57:32;;;;;;;3.42;1.25;;;19.00;62.00;;;;;;5072212;28;20041;-60
2023/01/03 04:00:04;;;;;;;2.60;1.30;;;19.00;62.00;;;;;;5073100;28;20048;-59
2023/01/03 04:02:29;;;;;;;2.17;0.93;;;19.00;62.00;;;;;;5072576;28;20125;-59
2023/01/03 04:04:57;;;;;;;2.00;1.10;;;19.00;62.00;;;;;;5072421;28;20102;-60
2023/01/03 04:07:22;;;;;;;2.95;1.30;;;19.00;62.00;;;;;;5072501;28;20131;-59
2023/01/03 04:09:48;;;;;;;2.47;1.00;;;19.00;62.00;;;;;;5072826;28;20178;-59
2023/01/03 04:12:13;;;;;;;2.47;1.10;;;19.00;61.90;;;;;;5067463;28;20063;-59
2023/01/03 04:14:39;;;;;;;3.25;1.35;;;19.00;61.90;;;;;;5073532;28;20534;-60
2023/01/03 04:17:04;;;;;;;3.13;1.20;;;19.00;61.90;;;;;;5073496;28;20056;-60
2023/01/03 04:19:30;;;;;;;2.33;1.10;;;19.00;61.80;;;;;;5072807;28;20482;-60
2023/01/03 04:21:55;;;;;;;2.53;1.20;;;19.10;61.90;;;;;;5073980;28;20072;-59
2023/01/03 04:24:21;;;;;;;2.63;1.23;;;19.10;61.80;;;;;;5073604;28;20044;-59
2023/01/03 04:26:47;;;;;;;2.75;1.15;;;19.10;61.80;;;;;;5072352;28;20041;-59
2023/01/03 04:29:13;;;;;;;2.70;1.15;;;19.10;61.80;;;;;;5072941;28;20080;-60
2023/01/03 04:31:38;;;;;;;1.73;1.10;;;19.00;61.70;;;;;;5073916;28;20090;-59
2023/01/03 04:34:04;;;;;;;2.13;1.00;;;19.10;61.80;;;;;;5072704;28;20076;-59
2023/01/03 04:36:29;;;;;;;2.28;1.10;;;19.00;61.70;;;;;;5073376;28;20098;-59
2023/01/03 04:38:55;;;;;;;2.67;1.05;;;19.10;61.70;;;;;;5073551;28;20484;-59
2023/01/03 04:41:21;;;;;;;2.67;1.00;;;19.10;61.60;;;;;;5072423;28;20392;-59
2023/01/03 04:44:02;;;;;;;2.08;1.23;;;19.10;61.60;;;;;;5073669;28;20532;-59
2023/01/03 04:46:35;;;;;;;2.10;1.08;;;19.10;61.60;;;;;;5071944;28;20053;-59
2023/01/03 04:49:00;;;;;;;2.25;1.17;;;19.10;61.60;;;;;;5073181;28;20040;-59
2023/01/03 04:51:26;;;;;;;2.33;1.08;;;19.10;61.60;;;;;;5072626;28;20040;-59
2023/01/03 04:53:52;;;;;;;1.92;1.20;;;19.10;61.50;;;;;;5072432;28;20500;-60
2023/01/03 04:56:23;;;;;;;2.47;1.13;;;19.20;61.50;;;;;;5072596;28;20066;-59
2023/01/03 04:58:48;;;;;;;2.55;1.20;;;19.20;61.50;;;;;;5073378;28;20047;-60
2023/01/03 05:01:14;;;;;;;2.00;1.00;;;19.20;61.40;;;;;;5062543;28;20048;-59
2023/01/03 05:03:39;;;;;;;2.40;1.10;;;19.20;61.40;;;;;;5052620;28;20105;-59
2023/01/03 05:06:06;;;;;;;1.85;1.00;;;19.20;61.30;;;;;;5052059;28;20045;-59
2023/01/03 05:08:32;;;;;;;2.05;0.90;;;19.30;61.30;;;;;;5051538;28;20194;-60
2023/01/03 05:10:58;;;;;;;3.15;1.10;;;19.30;61.40;;;;;;5052681;28;20532;-59
2023/01/03 05:13:23;;;;;;;2.10;1.15;;;19.30;61.30;;;;;;5052668;28;20045;-59
2023/01/03 05:15:49;;;;;;;1.67;0.98;;;19.30;61.30;;;;;;5051855;28;20053;-59
2023/01/03 05:18:15;;;;;;;1.90;1.13;;;19.30;61.30;;;;;;5052648;28;20378;-59
2023/01/03 05:26:13;;;;;;;1.52;0.95;;;19.30;61.20;;;;;;5052224;28;20548;-59
2023/01/03 05:28:39;;;;;;;2.47;1.15;;;19.30;61.10;;;;;;5052056;28;20071;-60
2023/01/03 05:31:04;;;;;;;3.67;1.30;;;19.40;61.20;;;;;;5052734;28;20041;-60
2023/01/03 05:33:30;;;;;;;2.38;1.42;;;19.40;61.10;;;;;;5052080;28;20047;-60
2023/01/03 05:35:56;;;;;;;2.10;1.10;;;19.40;61.10;;;;;;5051914;28;20152;-60
2023/01/03 05:38:22;;;;;;;2.42;1.15;;;19.40;61.10;;;;;;5051720;28;20040;-59
2023/01/03 05:40:48;;;;;;;2.22;1.00;;;19.40;61.10;;;;;;5052347;28;20045;-60
2023/01/03 05:43:14;;;;;;;1.60;1.10;;;19.40;61.00;;;;;;5051517;28;20041;-60
2023/01/03 05:45:40;;;;;;;2.92;1.10;;;19.50;61.00;;;;;;5052363;28;20163;-60
2023/01/03 05:48:05;;;;;;;2.08;1.00;;;19.50;61.00;;;;;;5052326;28;20102;-60
2023/01/03 05:50:31;;;;;;;1.52;0.80;;;19.50;61.00;;;;;;5049741;28;20032;-60
2023/01/03 05:52:57;;;;;;;1.65;0.98;;;19.50;61.00;;;;;;5052564;28;20106;-60
2023/01/03 05:55:22;;;;;;;2.05;1.02;;;19.50;60.90;;;;;;5052093;28;20459;-60
2023/01/03 05:57:48;;;;;;;2.28;0.93;;;19.50;60.90;;;;;;5051635;28;20044;-60
2023/01/03 06:00:14;;;;;;;2.60;1.23;;;19.50;60.90;;;;;;5051870;28;20041;-59
2023/01/03 06:02:39;;;;;;;2.08;1.00;;;19.50;60.80;;;;;;5051079;28;20124;-59
2023/01/03 06:05:05;;;;;;;2.05;1.20;;;19.50;60.80;;;;;;5051319;28;20447;-60
2023/01/03 06:07:32;;;;;;;1.77;1.05;;;19.60;60.90;;;;;;5062604;28;20040;-60
2023/01/03 06:09:58;;;;;;;1.48;0.98;;;19.60;60.80;;;;;;5072118;28;20044;-60
2023/01/03 06:12:27;;;;;;;2.53;0.93;;;19.60;60.80;;;;;;5071021;28;20131;-60
2023/01/03 06:14:52;;;;;;;2.10;1.20;;;19.60;60.80;;;;;;5060827;28;20057;-60
2023/01/03 06:20:02;;;;;;;1.98;1.00;;;19.60;60.80;;;;;;5051242;28;20045;-59
2023/01/03 06:22:28;;;;;;;1.38;0.90;;;19.60;60.70;;;;;;5051634;28;20810;-59
2023/01/03 06:24:54;;;;;;;2.03;1.10;;;19.60;60.70;;;;;;5051682;28;20033;-59
2023/01/03 06:27:19;;;;;;;1.42;0.90;;;19.70;60.70;;;;;;5051415;28;20546;-59
2023/01/03 06:29:45;;;;;;;2.17;1.10;;;19.70;60.70;;;;;;5052019;28;20146;-59
2023/01/03 06:32:10;;;;;;;1.95;0.90;;;19.70;60.70;;;;;;5050572;28;20045;-59
2023/01/03 06:34:36;;;;;;;2.40;0.98;;;19.70;60.70;;;;;;5052006;28;20041;-59
2023/01/03 06:37:02;;;;;;;1.13;0.73;;;19.70;60.60;;;;;;5051804;28;20052;-59
2023/01/03 06:39:27;;;;;;;1.77;0.80;;;19.70;60.60;;;;;;5045891;28;20490;-59
2023/01/03 06:41:53;;;;;;;2.42;1.20;;;19.70;60.60;;;;;;5050635;28;20045;-59
2023/01/03 06:44:19;;;;;;;1.55;0.90;;;19.80;60.60;;;;;;5051482;28;20049;-59
2023/01/03 06:54:59;;;;;;;1.90;0.93;;;19.80;60.50;;;;;;5053847;28;20041;-59
2023/01/03 06:57:24;;;;;;;1.85;0.88;;;19.80;60.50;;;;;;5053827;28;20048;-59
2023/01/03 06:59:50;;;;;;;3.15;1.13;;;19.80;60.50;;;;;;5054263;28;20037;-59
2023/01/03 07:02:16;;;;;;;1.30;0.90;;;19.80;60.40;;;;;;5054569;28;20130;-59
2023/01/03 07:04:41;;;;;;;1.83;0.90;;;19.80;60.40;;;;;;5055386;28;20045;-59
2023/01/03 07:07:07;;;;;;;2.03;0.90;;;19.80;60.40;;;;;;5054555;28;20044;-60
2023/01/03 07:09:32;;;;;;;2.05;0.95;;;19.90;60.40;;;;;;5054932;28;20135;-59
2023/01/03 07:13:57;;;;;;;2.25;0.93;;;19.90;60.50;;;;;;5055244;28;20041;-60
2023/01/03 07:14:43;;;;;;;1.85;0.80;;;19.90;60.40;;;;;;5053947;28;20401;-60
2023/01/03 07:17:09;;;;;;;2.47;1.02;;;19.90;60.40;;;;;;5053475;28;20477;-59
2023/01/03 07:19:34;;;;;;;1.27;0.80;;;19.90;60.30;;;;;;5053618;28;20056;-59
2023/01/03 07:22:00;;;;;;;1.73;0.95;;;19.90;60.30;;;;;;5054584;28;20496;-59
2023/01/03 07:24:26;;;;;;;2.17;1.00;;;19.90;60.30;;;;;;5054792;28;20425;-59
2023/01/03 07:26:51;;;;;;;1.90;1.08;;;19.90;60.20;;;;;;5054885;28;20041;-59
2023/01/03 07:29:17;;;;;;;5.82;1.30;;;19.90;60.20;;;;;;5054099;28;20432;-59
2023/01/03 07:31:42;;;;;;;3.72;1.30;;;19.90;60.10;;;;;;5055032;28;20049;-59
2023/01/03 07:34:08;;;;;;;2.40;0.90;;;19.90;60.10;;;;;;5054819;28;20187;-59
2023/01/03 07:36:33;;;;;;;2.85;1.08;;;19.90;60.10;;;;;;5053704;28;20088;-59
2023/01/03 07:38:59;;;;;;;5.63;1.05;;;19.90;60.10;;;;;;5054850;28;20041;-59
2023/01/03 07:43:35;;;;;;;4.50;1.30;;;19.90;60.10;;;;;;5053183;28;20048;-59
2023/01/03 07:44:10;;;;;;;2.97;1.38;;;19.90;60.10;;;;;;5052667;28;20049;-59
2023/01/03 07:46:36;;;;;;;13.30;1.45;;;19.90;60.10;;;;;;5053264;28;20451;-59
2023/01/03 07:49:01;;;;;;;3.20;1.38;;;19.90;60.10;;;;;;5054533;28;20076;-59
2023/01/03 07:51:27;;;;;;;2.80;1.45;;;19.90;60.20;;;;;;5052231;28;20048;-59
2023/01/03 07:53:53;;;;;;;4.80;1.27;;;19.90;60.20;;;;;;5053859;28;20037;-59
2023/01/03 07:56:19;;;;;;;4.43;1.60;;;20.00;60.40;;;;;;5053497;28;20064;-60
2023/01/03 07:58:45;;;;;;;2.85;1.20;;;20.00;60.60;;;;;;5053658;28;20444;-60
2023/01/03 08:01:29;;;;;;;3.83;1.20;;;20.00;60.60;;;;;;5053774;28;20549;-59
2023/01/03 08:03:54;;;;;;;3.40;1.30;;;20.00;60.80;;;;;;5053275;28;20508;-59
2023/01/03 08:06:21;;;;;;;2.22;1.10;;;20.00;60.80;;;;;;5053945;28;20037;-59
2023/01/03 08:13:16;;;;;;;2.88;1.10;;;20.00;60.90;;;;;;5051598;28;20493;-59
2023/01/03 08:14:16;;;;;;;2.50;1.20;;;20.10;61.10;;;;;;5053545;28;20061;-59
2023/01/03 08:16:42;;;;;;;4.03;1.60;;;20.10;61.10;;;;;;5054214;28;20044;-59
2023/01/03 08:19:07;;;;;;;5.80;1.70;;;20.10;61.10;;;;;;5053319;28;20382;-59
2023/01/03 08:21:33;;;;;;;3.45;1.50;;;20.10;61.20;;;;;;5053817;28;20040;-60
2023/01/03 08:23:58;;;;;;;4.95;2.00;;;20.10;61.30;;;;;;5053623;28;20076;-59
2023/01/03 08:26:24;;;;;;;5.38;1.52;;;20.10;61.20;;;;;;5052611;28;20041;-59
2023/01/03 08:28:50;;;;;;;2.60;1.55;;;20.10;61.30;;;;;;5053916;28;20041;-59
2023/01/03 08:31:18;;;;;;;3.67;1.50;;;20.10;61.30;;;;;;5053684;28;20083;-59
2023/01/03 08:33:52;;;;;;;3.70;1.15;;;20.10;61.30;;;;;;5051519;28;20119;-59
2023/01/03 08:36:18;;;;;;;2.75;1.60;;;20.20;61.30;;;;;;5051362;28;20090;-59
2023/01/03 08:38:53;;;;;;;4.85;1.55;;;20.20;61.30;;;;;;5051743;28;20044;-59
2023/01/03 08:41:19;;;;;;;2.97;1.50;;;20.20;61.30;;;;;;5053326;28;20079;-59
2023/01/03 08:43:45;;;;;;;4.13;1.70;;;20.20;61.40;;;;;;5053342;28;20045;-59
2023/01/03 08:46:11;;;;;;;3.10;1.48;;;20.20;61.30;;;;;;5050969;28;20041;-59
2023/01/03 08:48:36;;;;;;;4.40;2.10;;;20.20;61.30;;;;;;5050879;28;20072;-60
2023/01/03 08:51:02;;;;;;;3.47;1.90;;;20.20;61.20;;;;;;5053119;28;20033;-58
2023/01/03 08:53:27;;;;;;;3.05;1.63;;;20.20;61.20;;;;;;5051585;28;20499;-59
2023/01/03 08:55:53;;;;;;;4.65;1.98;;;20.20;61.30;;;;;;5053611;28;20052;-60
2023/01/03 08:58:19;;;;;;;2.65;1.50;;;20.20;61.30;;;;;;5052980;28;20041;-60
2023/01/03 09:00:44;;;;;;;3.53;1.90;;;20.20;61.30;;;;;;5052962;28;20544;-60
2023/01/03 09:03:10;;;;;;;3.50;1.83;;;20.20;61.60;;;;;;5053012;28;20044;-60
2023/01/03 09:05:36;;;;;;;5.15;2.25;;;20.20;61.30;;;;;;5053556;28;20052;-60
2023/01/03 09:08:01;;;;;;;3.42;1.90;;;20.20;61.30;;;;;;5052683;28;20058;-60
2023/01/03 09:10:27;;;;;;;3.60;1.85;;;20.30;61.30;;;;;;5052372;28;20115;-60
2023/01/03 09:12:52;;;;;;;3.97;2.10;;;20.30;61.30;;;;;;5052589;28;20501;-60
2023/01/03 09:15:18;;;;;;;3.42;1.85;;;20.30;61.40;;;;;;5051396;28;20053;-60
2023/01/03 09:17:46;;;;;;;4.35;2.20;;;20.30;61.40;;;;;;5053035;28;20037;-60
2023/01/03 09:20:11;;;;;;;3.88;1.83;;;20.30;61.40;;;;;;5052759;28;20045;-60
2023/01/03 09:22:37;;;;;;;4.53;2.10;;;20.30;61.40;;;;;;5052237;28;20044;-60
2023/01/03 09:25:03;;;;;;;4.68;2.13;;;20.30;61.30;;;;;;5052978;28;20041;-61
2023/01/03 09:27:28;;;;;;;4.07;2.10;;;20.30;61.30;;;;;;5052694;28;20075;-60
2023/01/03 09:29:54;;;;;;;4.32;2.40;;;20.30;61.30;;;;;;5052227;28;20120;-61
2023/01/03 09:32:19;;;;;;;4.43;2.58;;;20.30;61.20;;;;;;5052882;28;20048;-60
2023/01/03 09:34:45;;;;;;;4.20;2.53;;;20.30;61.30;;;;;;5053159;28;20060;-61
2023/01/03 09:37:10;;;;;;;3.70;2.17;;;20.30;61.20;;;;;;5051792;28;20045;-60
2023/01/03 09:39:39;;;;;;;4.03;2.38;;;20.30;61.20;;;;;;5053114;28;20560;-60
2023/01/03 09:44:49;;;;;;;3.85;2.10;;;20.20;61.10;;;;;;5052767;28;19921;-60
2023/01/03 09:47:22;;;;;;;3.80;2.10;;;20.20;61.10;;;;;;5045919;28;20029;-61
2023/01/03 09:49:48;;;;;;;4.97;2.33;;;20.20;61.10;;;;;;5034495;28;20044;-60
2023/01/03 10:03:47;;;;;;;5.07;2.40;;;20.20;61.10;;;;;;5050366;28;20048;-60
2023/01/03 10:06:41;;;;;;;5.90;2.42;;;20.20;61.10;;;;;;5046849;28;20049;-60
2023/01/03 10:09:26;;;;;;;4.45;2.30;;;20.20;61.10;;;;;;5033252;28;20052;-62
2023/01/03 10:12:01;;;;;;;3.67;2.40;;;20.20;61.10;;;;;;5029852;28;20125;-61
2023/01/03 10:14:32;;;;;;;4.82;2.53;;;20.20;61.70;;;;;;5031731;28;20057;-60
2023/01/03 10:17:10;;;;;;;5.88;3.03;;;20.20;60.90;;;;;;5034481;28;20096;-60
2023/01/03 10:20:10;;;;;;;3.75;2.40;;;20.10;60.60;;;;;;5032429;28;20046;-60
2023/01/03 10:22:36;;;;;;;5.05;2.40;;;20.10;61.00;;;;;;5039048;28;20056;-60
2023/01/03 10:25:18;;;;;;;4.55;2.67;;;20.10;61.00;;;;;;5051398;28;20045;-59
2023/01/03 10:27:56;;;;;;;4.68;2.55;;;20.10;61.10;;;;;;5055778;28;20049;-59
2023/01/03 10:30:41;;;;;;;5.88;2.92;;;20.10;61.10;;;;;;5056284;28;20044;-60
2023/01/03 10:33:32;;;;;;;4.63;2.20;;;20.10;61.10;;;;;;5054297;28;20079;-60
2023/01/03 10:35:58;;;;;;;6.07;2.78;;;20.20;61.10;;;;;;5054510;28;20139;-65
2023/01/03 10:38:24;;;;;;;4.53;2.40;;;20.10;60.90;;;;;;5053909;28;20156;-61
2023/01/03 10:40:57;;;;;;;4.53;2.95;;;20.10;60.80;;;;;;5055770;28;20037;-60
2023/01/03 10:43:30;;;;;;;5.55;2.92;;;20.10;61.00;;;;;;5053548;28;20044;-61
2023/01/03 10:46:03;;;;;;;4.38;2.60;;;20.20;61.10;;;;;;5046092;28;20080;-60
2023/01/03 10:48:42;;;;;;;5.68;2.83;;;20.20;61.10;;;;;;5054273;28;20527;-60
2023/01/03 10:51:23;;;;;;;5.50;3.40;;;20.20;61.10;;;;;;5049871;28;20070;-60
2023/01/03 10:53:49;;;;;;;4.90;2.90;;;20.20;60.90;;;;;;5054216;28;20041;-60
2023/01/03 10:56:14;;;;;;;5.60;3.00;;;20.20;60.90;;;;;;5054485;28;20063;-61
2023/01/03 10:58:40;;;;;;;5.47;2.72;;;20.20;60.90;;;;;;5053727;28;20037;-61
2023/01/03 11:01:24;;;;;;;4.47;3.05;;;20.20;60.80;;;;;;5052475;28;20090;-59
2023/01/03 11:04:12;;;;;;;5.88;2.97;;;20.20;60.70;;;;;;5053146;28;20047;-60
2023/01/03 11:06:37;;;;;;;5.65;3.50;;;20.20;60.50;;;;;;5053066;28;20049;-60
2023/01/03 11:09:05;;;;;;;5.47;3.10;;;20.20;60.40;;;;;;5037744;28;20044;-60
2023/01/03 11:11:35;;;;;;;7.30;4.00;;;20.20;60.30;;;;;;5033783;28;20508;-61
2023/01/03 11:14:22;;;;;;;5.30;3.60;;;20.20;60.30;;;;;;5039595;28;20047;-61
2023/01/03 11:16:57;;;;;;;5.23;3.60;;;20.20;60.20;;;;;;5053743;28;20079;-60
2023/01/03 11:19:25;;;;;;;5.85;3.22;;;20.20;60.20;;;;;;5052551;28;20037;-60
2023/01/03 11:21:53;;;;;;;;;;;20.20;60.20;;;;;;5054545;28;20572;-60
2023/01/03 11:24:40;;;;;;;9.85;3.55;;;20.20;60.30;;;;;;5050675;28;19920;-60
2023/01/03 11:27:29;;;;;;;7.45;3.85;;;20.20;60.40;;;;;;5052912;28;20132;-60
2023/01/03 11:30:04;;;;;;;8.00;3.30;;;20.20;60.30;;;;;;5053062;28;20040;-60
2023/01/03 11:32:50;;;;;;;6.60;3.60;;;20.20;60.40;;;;;;5053492;28;20132;-61
2023/01/03 11:35:33;;;;;;;5.07;3.10;;;20.20;60.40;;;;;;5053114;28;20045;-61
2023/01/03 11:38:36;;;;;;;6.78;3.58;;;20.20;60.40;;;;;;5053426;28;20037;-60
2023/01/03 11:41:10;;;;;;;6.15;3.40;;;20.20;60.50;;;;;;5055227;28;20123;-60
2023/01/03 11:44:00;;;;;;;6.18;3.70;;;20.20;60.50;;;;;;5054146;28;20041;-60
2023/01/03 11:46:37;;;;;;;8.55;3.72;;;20.20;60.40;;;;;;5054153;28;20056;-61
2023/01/03 11:49:08;;;;;;;10.00;3.88;;;20.10;60.40;;;;;;5050758;28;20481;-61
2023/01/03 11:51:41;;;;;;;7.00;3.58;;;20.10;60.40;;;;;;5053182;28;20049;-62
2023/01/03 11:54:28;;;;;;;5.50;3.45;;;20.10;60.40;;;;;;5051484;28;20064;-61
2023/01/03 11:56:53;;;;;;;5.25;3.08;;;20.10;60.40;;;;;;5050929;28;20135;-61
2023/01/03 11:59:37;;;;;;;8.02;3.28;;;20.10;60.40;;;;;;5052088;28;20516;-62
2023/01/03 12:02:27;;;;;;;6.07;3.55;;;20.10;60.50;;;;;;5051509;28;20046;-62
2023/01/03 12:05:23;;;;;;;6.20;3.60;;;20.10;60.60;;;;;;5067563;28;20053;-60
2023/01/03 12:08:04;;;;;;;9.25;3.35;;;20.10;60.50;;;;;;5054424;28;20044;-61
2023/01/03 12:10:32;;;;;;;11.35;4.05;;;20.10;60.50;;;;;;5053328;28;20465;-60
2023/01/03 12:12:57;;;;;;;;;;;20.10;60.50;;;;;;5053496;28;20056;-60
2023/01/03 12:15:38;;;;;;;10.98;4.45;;;20.10;60.30;;;;;;5048804;28;19921;-60
2023/01/03 12:18:30;;;;;;;11.00;4.28;;;20.10;60.50;;;;;;5052401;28;20044;-60
2023/01/03 12:20:57;;;;;;;11.20;3.55;;;20.10;60.40;;;;;;5053907;28;20405;-61
2023/01/03 12:23:43;;;;;;;10.03;4.00;;;20.10;60.40;;;;;;5052951;28;20090;-60
2023/01/03 12:26:10;;;;;;;9.43;3.72;;;20.10;60.40;;;;;;5052355;28;20311;-60
2023/01/03 12:28:46;;;;;;;9.02;3.78;;;20.10;60.30;;;;;;5052689;28;20540;-60
2023/01/03 12:31:29;;;;;;;8.73;3.97;;;20.10;60.30;;;;;;5053104;28;20045;-60
2023/01/03 12:34:19;;;;;;;8.70;3.70;;;20.10;60.10;;;;;;5052800;28;20094;-60
2023/01/03 12:36:55;;;;;;;8.13;3.88;;;20.10;60.10;;;;;;5045636;28;20053;-60
2023/01/03 12:39:35;;;;;;;8.25;3.72;;;20.10;60.10;;;;;;5052774;28;20049;-60
2023/01/03 12:42:22;;;;;;;9.05;3.72;;;20.10;60.10;;;;;;5052794;28;20052;-60
2023/01/03 12:44:52;;;;;;;8.80;4.23;;;20.10;60.10;;;;;;5053314;28;20045;-60
2023/01/03 12:47:39;;;;;;;7.05;3.47;;;20.10;60.10;;;;;;5051712;28;20056;-60
2023/01/03 12:50:32;;;;;;;9.07;3.30;;;20.10;60.00;;;;;;5052580;28;20435;-60
2023/01/03 12:53:09;;;;;;;8.18;3.70;;;20.00;60.00;;;;;;5052807;28;20049;-60
2023/01/03 12:56:00;;;;;;;7.20;3.40;;;20.10;60.00;;;;;;5052547;28;20052;-60
2023/01/03 12:58:31;;;;;;;6.05;3.00;;;20.10;60.00;;;;;;5053373;28;20041;-61
2023/01/03 13:00:59;;;;;;;6.57;3.22;;;20.10;60.00;;;;;;5052651;28;20094;-61
2023/01/03 13:03:34;;;;;;;6.90;2.90;;;20.10;60.00;;;;;;5052129;28;20049;-62
2023/01/03 13:06:03;;;;;;;7.68;3.20;;;20.10;60.00;;;;;;5051572;28;20041;-60
2023/01/03 13:08:32;;;;;;;6.47;3.25;;;20.10;60.00;;;;;;5052005;28;20130;-61
2023/01/03 13:11:06;;;;;;;6.45;2.60;;;20.10;60.00;;;;;;5053373;28;20102;-60
2023/01/03 13:13:31;;;;;;;6.78;3.30;;;20.10;60.00;;;;;;5051148;28;20076;-59
2023/01/03 13:15:57;;;;;;;9.82;3.28;;;20.10;60.00;;;;;;5052962;28;20081;-59
2023/01/03 13:18:22;;;;;;;8.43;3.13;;;20.10;60.00;;;;;;5053204;28;20041;-60
2023/01/03 13:20:52;;;;;;;7.10;2.85;;;20.10;60.00;;;;;;5050650;28;20041;-60
2023/01/03 13:23:20;;;;;;;7.15;3.10;;;20.10;60.00;;;;;;5052698;28;20044;-59
2023/01/03 13:26:16;;;;;;;5.75;3.00;;;20.10;59.90;;;;;;5053201;28;20041;-60
2023/01/03 13:28:41;;;;;;;5.93;2.70;;;20.10;59.90;;;;;;5051984;28;20068;-59
2023/01/03 13:31:13;;;;;;;6.15;2.88;;;20.10;59.90;;;;;;5052895;28;20075;-60
2023/01/03 13:33:50;;;;;;;7.50;2.70;;;20.10;59.80;;;;;;5052875;28;20052;-60
2023/01/03 13:36:16;;;;;;;7.55;3.33;;;20.20;59.80;;;;;;5051953;28;20045;-59
2023/01/03 13:38:41;;;;;;;5.03;2.50;;;20.10;59.60;;;;;;5048772;28;20163;-60
2023/01/03 13:41:46;;;;;;;6.80;3.25;;;20.10;59.50;;;;;;5050770;28;20048;-59
2023/01/03 13:44:23;;;;;;;7.07;2.72;;;20.10;59.70;;;;;;4994352;28;20073;-60
2023/01/03 13:46:49;;;;;;;4.97;2.92;;;20.10;59.90;;;;;;5010343;28;20601;-60
2023/01/03 13:49:20;;;;;;;6.88;2.42;;;20.10;59.90;;;;;;5015103;28;20052;-60
2023/01/03 13:51:52;;;;;;;4.72;2.60;;;20.20;60.00;;;;;;5051492;28;20044;-59
2023/01/03 13:54:17;;;;;;;4.60;2.35;;;20.20;60.00;;;;;;5052057;28;20044;-58
2023/01/03 13:56:43;;;;;;;5.57;2.55;;;20.20;60.00;;;;;;5049308;28;20041;-58
2023/01/03 13:59:18;;;;;;;6.95;2.40;;;20.20;60.10;;;;;;5051857;28;20047;-59